aviador You're here:

ZWWW Decoded Metar

URUMQI in CHINA
Report Time2018-04-23 22:30:00
UTC Time2018-04-23 23:10:27
Flight Rules vfr VFR
Wind150° at 10 kt
W.Decomp.*RWY 07: 2.2 kt HW 9.7 kt RCW
W.Rank150° ranks 3
Current wind is above 150° avg. (6.0)
Visibility9999 m
Phenomena:N/A
Clouds:N/A
Expected CloudBase > 8,400 ft AGL from Temp-Dew spread
CeilingNone
Temp20°C (ISA +9)
Dew Point-1°C (24% RH)
AAT14.2°C
QNH1016 hPa
Density Alt3,205 ft
Elevation2,146 ft
Report Wrong Elevation
Raw Report
METAR ZWWW 232230Z 15005MPS CAVOK 20/M01 Q1016 NOSIG=

Extra information for ZWWW:More info

Metar Taf Metar & Taf Last 4 Metars F.Rules Stats Wind Profile Meteogram Temp Stats Airport Information Weather charts Add Link Nearby VenuesMetar ALERT Operation Metar Decoded Social comments